Time;durP1;ratioP1;P1;durP2;ratioP2;P2;SDS_P1;SDS_P2;PMS_P1;PMS_P2;Temp;Humidity;BMP_temperature;BMP_pressure;BME280_temperature;BME280_humidity;BME280_pressure;Samples;Min_cycle;Max_cycle;Signal;HPM_P1;HPM_P2
2023/10/08 00:02:27;;;;;;;0.00;0.00;;;14.30;90.90;;;;;;5027485;28;20057;-68
2023/10/08 00:04:55;;;;;;;0.00;0.00;;;14.30;91.00;;;;;;5027719;28;20148;-69
2023/10/08 00:07:21;;;;;;;0.00;0.00;;;14.20;91.00;;;;;;5028203;28;20099;-68
2023/10/08 00:09:51;;;;;;;0.00;0.00;;;14.20;91.20;;;;;;5026534;28;20151;-68
2023/10/08 00:12:17;;;;;;;0.00;0.00;;;14.30;91.10;;;;;;5027182;28;20076;-68
2023/10/08 00:14:44;;;;;;;0.00;0.00;;;14.20;90.90;;;;;;5028153;28;20083;-69
2023/10/08 00:17:11;;;;;;;0.00;0.00;;;14.20;90.90;;;;;;5028206;28;20049;-67
2023/10/08 00:19:38;;;;;;;0.00;0.00;;;14.10;90.90;;;;;;5028103;28;20041;-68
2023/10/08 00:22:07;;;;;;;0.00;0.00;;;14.10;91.00;;;;;;5026807;28;20088;-69
2023/10/08 00:24:33;;;;;;;0.00;0.00;;;14.00;91.10;;;;;;5024480;28;20073;-68
2023/10/08 00:27:00;;;;;;;0.00;0.00;;;14.00;91.20;;;;;;5021750;28;20595;-68
2023/10/08 00:29:26;;;;;;;0.00;0.00;;;14.00;91.20;;;;;;5026937;28;20088;-68
2023/10/08 00:31:56;;;;;;;0.00;0.00;;;14.00;91.30;;;;;;5026825;28;20073;-68
2023/10/08 00:34:24;;;;;;;0.00;0.00;;;14.00;91.30;;;;;;5024507;28;20414;-68
2023/10/08 00:36:51;;;;;;;0.00;0.00;;;13.90;91.40;;;;;;5026150;28;20046;-68
2023/10/08 00:39:23;;;;;;;0.00;0.00;;;14.00;91.20;;;;;;5026651;28;20516;-68
2023/10/08 00:41:50;;;;;;;0.00;0.00;;;13.90;91.20;;;;;;5027310;28;20069;-68
2023/10/08 00:44:22;;;;;;;0.00;0.00;;;13.90;91.20;;;;;;5027659;28;20037;-68
2023/10/08 00:46:49;;;;;;;0.00;0.00;;;13.90;91.10;;;;;;5027117;28;20045;-68
2023/10/08 00:54:28;;;;;;;0.00;0.00;;;13.90;90.90;;;;;;5025872;28;20408;-69
2023/10/08 00:56:57;;;;;;;0.00;0.00;;;13.80;91.00;;;;;;5027778;28;20068;-68
2023/10/08 00:59:24;;;;;;;0.00;0.00;;;13.80;91.00;;;;;;5026329;28;20120;-68
2023/10/08 01:01:51;;;;;;;0.00;0.00;;;13.80;90.90;;;;;;5026231;28;20049;-69
2023/10/08 01:04:23;;;;;;;0.00;0.00;;;13.80;90.90;;;;;;5025754;28;20043;-68
2023/10/08 01:06:58;;;;;;;0.00;0.00;;;13.90;90.90;;;;;;5026266;28;20164;-67
2023/10/08 01:09:37;;;;;;;0.00;0.00;;;13.90;90.90;;;;;;5023952;28;20118;-68
2023/10/08 01:12:23;;;;;;;0.00;0.00;;;14.00;90.90;;;;;;5026567;28;20080;-68
2023/10/08 01:14:53;;;;;;;0.00;0.00;;;13.90;90.80;;;;;;5025978;28;20502;-68
2023/10/08 01:17:26;;;;;;;0.00;0.00;;;13.90;90.70;;;;;;5027259;28;20080;-68
2023/10/08 01:22:38;;;;;;;0.00;0.00;;;14.00;90.80;;;;;;5027316;28;20037;-68
2023/10/08 01:25:05;;;;;;;0.00;0.00;;;14.00;90.70;;;;;;5027006;28;20052;-68
2023/10/08 01:27:34;;;;;;;0.00;0.00;;;14.10;90.80;;;;;;5026248;28;20041;-68
2023/10/08 01:30:09;;;;;;;0.00;0.00;;;14.00;90.70;;;;;;5025964;28;20120;-68
2023/10/08 01:32:36;;;;;;;0.00;0.00;;;14.00;90.70;;;;;;5025284;28;20180;-68
2023/10/08 01:35:05;;;;;;;0.00;0.00;;;14.10;90.60;;;;;;5025971;28;20532;-68
2023/10/08 01:37:33;;;;;;;0.00;0.00;;;14.10;90.60;;;;;;5030137;28;20552;-68
2023/10/08 01:40:03;;;;;;;0.00;0.00;;;14.00;90.50;;;;;;5030646;28;20077;-68
2023/10/08 01:42:32;;;;;;;0.00;0.00;;;14.00;90.40;;;;;;5030121;28;20532;-68
2023/10/08 01:44:58;;;;;;;0.00;0.00;;;14.00;90.10;;;;;;5030368;28;20049;-68
2023/10/08 01:47:25;;;;;;;0.00;0.00;;;14.00;90.00;;;;;;5031081;28;20048;-69
2023/10/08 01:49:53;;;;;;;0.00;0.00;;;14.00;90.00;;;;;;5029361;28;20099;-69
2023/10/08 01:52:22;;;;;;;0.00;0.00;;;14.00;90.00;;;;;;5030234;28;20123;-68
2023/10/08 01:54:54;;;;;;;0.00;0.00;;;14.10;90.00;;;;;;5027497;28;20053;-69
2023/10/08 01:57:19;;;;;;;;;;;14.10;90.00;;;;;;5031440;28;20049;-68
2023/10/08 01:59:45;;;;;;;0.00;0.00;;;14.10;90.00;;;;;;5029601;28;19921;-68
2023/10/08 02:02:12;;;;;;;0.00;0.00;;;14.10;89.90;;;;;;5031328;28;20030;-68
2023/10/08 02:04:38;;;;;;;0.00;0.00;;;14.10;89.90;;;;;;5029968;28;20050;-68
2023/10/08 02:07:04;;;;;;;0.00;0.00;;;14.20;89.80;;;;;;5029286;28;20034;-68
2023/10/08 02:09:33;;;;;;;0.00;0.00;;;14.20;89.70;;;;;;5030032;28;20100;-68
2023/10/08 02:11:59;;;;;;;0.00;0.00;;;14.20;89.70;;;;;;5030128;28;20045;-68
2023/10/08 02:14:24;;;;;;;0.00;0.00;;;14.20;89.70;;;;;;5025540;28;20041;-68
2023/10/08 02:16:52;;;;;;;0.00;0.00;;;14.30;89.70;;;;;;5029342;28;20130;-68
2023/10/08 02:19:18;;;;;;;0.00;0.00;;;14.40;89.70;;;;;;5029078;28;20046;-68
2023/10/08 02:21:46;;;;;;;0.00;0.00;;;14.40;89.70;;;;;;5029106;28;20057;-68
2023/10/08 02:24:12;;;;;;;0.00;0.00;;;14.50;89.70;;;;;;5028492;28;20049;-68
2023/10/08 02:26:39;;;;;;;0.00;0.00;;;14.40;89.70;;;;;;5029904;28;20041;-67
2023/10/08 02:29:11;;;;;;;0.00;0.00;;;14.50;89.70;;;;;;5028819;28;20048;-68
2023/10/08 02:31:39;;;;;;;0.00;0.00;;;14.50;89.70;;;;;;5029083;28;20038;-67
2023/10/08 02:34:07;;;;;;;0.00;0.00;;;14.50;89.70;;;;;;5028944;28;20034;-67
2023/10/08 02:36:36;;;;;;;0.00;0.00;;;14.60;89.70;;;;;;5028146;28;20049;-67
2023/10/08 02:39:06;;;;;;;0.00;0.00;;;14.50;89.60;;;;;;5029218;28;20084;-68
2023/10/08 02:41:32;;;;;;;0.00;0.00;;;14.60;89.60;;;;;;5029217;28;20041;-67
2023/10/08 02:43:59;;;;;;;0.00;0.00;;;14.60;89.60;;;;;;5029913;28;20033;-66
2023/10/08 02:46:26;;;;;;;0.00;0.00;;;14.60;89.50;;;;;;5029703;28;20544;-68
2023/10/08 02:48:52;;;;;;;0.00;0.00;;;14.60;89.50;;;;;;5029897;28;20069;-67
2023/10/08 02:51:20;;;;;;;0.00;0.00;;;14.60;89.50;;;;;;5029732;28;20037;-67
2023/10/08 02:53:46;;;;;;;0.00;0.00;;;14.60;89.40;;;;;;5030304;28;20053;-68
2023/10/08 02:56:13;;;;;;;0.10;0.10;;;14.60;89.40;;;;;;5029512;28;20048;-68
2023/10/08 02:58:43;;;;;;;0.00;0.00;;;14.60;89.30;;;;;;5031144;28;20055;-69
2023/10/08 03:01:12;;;;;;;0.00;0.00;;;14.60;89.20;;;;;;5027908;28;20549;-70
2023/10/08 03:03:42;;;;;;;0.00;0.00;;;14.70;89.30;;;;;;5029406;28;20559;-68
2023/10/08 03:06:14;;;;;;;0.00;0.00;;;14.70;89.20;;;;;;5022511;28;20068;-68
2023/10/08 03:08:41;;;;;;;0.00;0.00;;;14.60;89.20;;;;;;5029654;28;20104;-68
2023/10/08 03:11:16;;;;;;;0.00;0.00;;;14.70;89.20;;;;;;5027680;28;20071;-68
2023/10/08 03:13:52;;;;;;;0.00;0.00;;;14.70;89.20;;;;;;5028589;28;20117;-68
2023/10/08 03:16:27;;;;;;;0.00;0.00;;;14.70;89.30;;;;;;5027943;28;20045;-68
2023/10/08 03:18:54;;;;;;;0.00;0.00;;;14.70;89.20;;;;;;5028767;28;20108;-68
2023/10/08 03:21:20;;;;;;;0.00;0.00;;;14.70;89.30;;;;;;5029524;28;21112;-68
2023/10/08 03:23:50;;;;;;;0.00;0.00;;;14.70;89.20;;;;;;5028769;28;20136;-69
2023/10/08 03:28:58;;;;;;;0.00;0.00;;;14.60;89.20;;;;;;5027680;28;20041;-68
2023/10/08 03:31:44;;;;;;;0.10;0.10;;;14.60;89.20;;;;;;5028853;28;20556;-68
2023/10/08 03:34:18;;;;;;;0.00;0.00;;;14.60;89.10;;;;;;5027670;28;20053;-69
2023/10/08 03:36:46;;;;;;;0.00;0.00;;;14.60;89.20;;;;;;5027722;28;20445;-68
2023/10/08 03:39:15;;;;;;;0.00;0.00;;;14.60;89.10;;;;;;5027443;28;20049;-69
2023/10/08 03:41:41;;;;;;;0.00;0.00;;;14.70;89.10;;;;;;5027977;28;20049;-68
2023/10/08 03:44:14;;;;;;;0.00;0.00;;;14.70;89.00;;;;;;5027401;28;20050;-68
2023/10/08 03:46:43;;;;;;;0.00;0.00;;;14.70;89.10;;;;;;5027851;28;20038;-68
2023/10/08 03:49:25;;;;;;;0.00;0.00;;;14.70;89.10;;;;;;5028646;28;20116;-68
2023/10/08 03:51:53;;;;;;;0.00;0.00;;;14.70;89.10;;;;;;5028073;28;20056;-68
2023/10/08 03:54:27;;;;;;;0.00;0.00;;;14.80;89.10;;;;;;5028192;28;20168;-68
2023/10/08 03:56:53;;;;;;;0.00;0.00;;;14.70;89.00;;;;;;5028761;28;20126;-68
2023/10/08 03:59:40;;;;;;;0.00;0.00;;;14.70;89.00;;;;;;5021342;28;20049;-68
2023/10/08 04:04:52;;;;;;;0.00;0.00;;;14.70;88.90;;;;;;5028353;28;20057;-68
2023/10/08 04:07:36;;;;;;;0.00;0.00;;;14.70;88.90;;;;;;5026668;28;20384;-68
2023/10/08 04:12:34;;;;;;;0.00;0.00;;;14.60;88.90;;;;;;5027906;28;20041;-68
2023/10/08 04:15:07;;;;;;;0.00;0.00;;;14.60;88.80;;;;;;5026223;28;20045;-68
2023/10/08 04:17:43;;;;;;;0.00;0.00;;;14.60;88.80;;;;;;5027581;28;20044;-68
2023/10/08 04:23:01;;;;;;;0.00;0.00;;;14.60;88.80;;;;;;5025345;28;20049;-67
2023/10/08 04:25:28;;;;;;;0.00;0.00;;;14.60;88.80;;;;;;5019659;28;20041;-67
2023/10/08 04:27:58;;;;;;;0.00;0.00;;;14.60;88.80;;;;;;5024198;28;20064;-67
2023/10/08 04:30:34;;;;;;;0.00;0.00;;;14.50;88.80;;;;;;5022290;28;20454;-68
2023/10/08 04:33:06;;;;;;;0.00;0.00;;;14.50;88.80;;;;;;5022839;28;20136;-68
2023/10/08 04:35:47;;;;;;;0.00;0.00;;;14.50;88.90;;;;;;5024547;28;20038;-68
2023/10/08 04:38:17;;;;;;;0.00;0.00;;;14.50;88.90;;;;;;5024121;28;20080;-68
2023/10/08 04:40:48;;;;;;;0.00;0.00;;;14.50;88.90;;;;;;5024570;28;20049;-67
2023/10/08 04:43:27;;;;;;;0.00;0.00;;;14.50;88.90;;;;;;5024076;28;20513;-67
2023/10/08 04:46:06;;;;;;;0.00;0.00;;;14.50;88.90;;;;;;5023042;28;20054;-68
2023/10/08 04:48:32;;;;;;;0.00;0.00;;;14.50;88.90;;;;;;5023777;28;20053;-67
2023/10/08 04:50:59;;;;;;;0.00;0.00;;;14.50;88.80;;;;;;5025384;28;20068;-67
2023/10/08 04:53:40;;;;;;;0.00;0.00;;;14.50;88.80;;;;;;5019151;28;20065;-67
2023/10/08 04:56:14;;;;;;;0.00;0.00;;;14.50;88.80;;;;;;5023675;28;20053;-66
2023/10/08 04:58:46;;;;;;;0.00;0.00;;;14.40;88.60;;;;;;5024070;28;20140;-67
2023/10/08 05:01:29;;;;;;;0.00;0.00;;;14.50;88.60;;;;;;5024173;28;20077;-67
2023/10/08 05:09:11;;;;;;;0.00;0.00;;;14.40;88.40;;;;;;5022523;28;20037;-67
2023/10/08 05:22:18;;;;;;;0.00;0.00;;;14.30;88.20;;;;;;5022066;28;20147;-67
2023/10/08 05:25:07;;;;;;;0.00;0.00;;;14.30;88.20;;;;;;5023256;28;20057;-67
2023/10/08 05:30:16;;;;;;;;;;;14.30;88.00;;;;;;5024211;28;20080;-67
2023/10/08 05:35:48;;;;;;;0.00;0.00;;;14.30;87.90;;;;;;5024262;28;20041;-68
2023/10/08 05:38:23;;;;;;;0.00;0.00;;;14.30;88.00;;;;;;5023538;28;20058;-67
2023/10/08 05:41:04;;;;;;;0.00;0.00;;;14.40;88.10;;;;;;5022782;28;20103;-67
2023/10/08 05:52:11;;;;;;;0.00;0.00;;;14.40;88.00;;;;;;5001761;28;20048;-66
2023/10/08 06:13:09;;;;;;;0.00;0.00;;;14.40;88.30;;;;;;5020203;28;20049;-67
2023/10/08 06:15:48;;;;;;;0.00;0.00;;;14.40;88.30;;;;;;5022839;28;20049;-67
2023/10/08 06:18:19;;;;;;;0.00;0.00;;;14.40;88.10;;;;;;5022763;28;20045;-67
2023/10/08 06:20:46;;;;;;;0.00;0.00;;;14.40;88.10;;;;;;5022238;28;20049;-67
2023/10/08 06:23:13;;;;;;;0.00;0.00;;;14.40;88.10;;;;;;5023689;28;20061;-67
2023/10/08 06:25:46;;;;;;;0.00;0.00;;;14.40;87.90;;;;;;5024806;28;20085;-68
2023/10/08 06:28:19;;;;;;;0.00;0.00;;;14.30;87.90;;;;;;5025810;28;20085;-67
2023/10/08 06:30:53;;;;;;;0.00;0.00;;;14.30;87.90;;;;;;5024966;28;20371;-67
2023/10/08 06:33:24;;;;;;;0.00;0.00;;;14.30;87.90;;;;;;5024587;28;20120;-68
2023/10/08 06:36:02;;;;;;;0.00;0.00;;;14.30;88.00;;;;;;5024797;28;20092;-68
2023/10/08 06:38:35;;;;;;;0.00;0.00;;;14.30;87.90;;;;;;5021333;28;20075;-68
2023/10/08 06:41:10;;;;;;;0.00;0.00;;;14.30;87.90;;;;;;5025119;28;20049;-68
2023/10/08 06:43:37;;;;;;;0.00;0.00;;;14.40;88.00;;;;;;5027578;28;20050;-68
2023/10/08 06:46:07;;;;;;;0.00;0.00;;;14.40;88.00;;;;;;5023950;28;20041;-68
2023/10/08 06:48:34;;;;;;;0.00;0.00;;;14.40;88.10;;;;;;5024382;28;20090;-68
2023/10/08 06:51:12;;;;;;;0.00;0.00;;;14.40;88.10;;;;;;5024022;28;20460;-69
2023/10/08 06:53:44;;;;;;;0.00;0.00;;;14.40;88.10;;;;;;5025485;28;20037;-68
2023/10/08 06:56:12;;;;;;;0.00;0.00;;;14.40;88.00;;;;;;5021105;28;20080;-68
2023/10/08 06:58:38;;;;;;;0.00;0.00;;;14.50;88.10;;;;;;5025300;28;20049;-70
2023/10/08 07:01:04;;;;;;;0.00;0.00;;;14.50;88.10;;;;;;5025967;28;20415;-68
2023/10/08 07:03:31;;;;;;;0.00;0.00;;;14.50;88.10;;;;;;5026161;28;20165;-68
2023/10/08 07:05:59;;;;;;;0.00;0.00;;;14.60;88.20;;;;;;5025843;28;20062;-68
2023/10/08 07:08:29;;;;;;;0.00;0.00;;;14.60;88.20;;;;;;5023698;28;20510;-68
2023/10/08 07:10:56;;;;;;;0.00;0.00;;;14.60;88.20;;;;;;5021761;28;20049;-68
2023/10/08 07:13:22;;;;;;;0.00;0.00;;;14.60;88.20;;;;;;5024207;28;20072;-67
2023/10/08 07:15:52;;;;;;;0.00;0.00;;;14.60;88.20;;;;;;5024441;28;20449;-69
2023/10/08 07:18:24;;;;;;;0.00;0.00;;;14.60;88.20;;;;;;5024736;28;20037;-67
2023/10/08 07:20:55;;;;;;;0.00;0.00;;;14.60;88.30;;;;;;5026389;28;20053;-67
2023/10/08 07:23:25;;;;;;;0.00;0.00;;;14.70;88.40;;;;;;5027279;28;20097;-66
2023/10/08 07:26:10;;;;;;;0.00;0.00;;;14.70;88.30;;;;;;5027106;28;20054;-66
2023/10/08 07:28:40;;;;;;;0.00;0.00;;;14.70;88.30;;;;;;5026853;28;20088;-66
2023/10/08 07:31:15;;;;;;;0.00;0.00;;;14.70;88.20;;;;;;5022774;28;20042;-67
2023/10/08 07:33:43;;;;;;;0.00;0.00;;;14.80;88.20;;;;;;5027783;28;20413;-67
2023/10/08 07:36:14;;;;;;;0.00;0.00;;;14.80;88.20;;;;;;5027874;28;20553;-67
2023/10/08 07:38:43;;;;;;;0.00;0.00;;;14.80;88.20;;;;;;5027724;28;20506;-67
2023/10/08 07:41:14;;;;;;;0.00;0.00;;;14.90;88.20;;;;;;5027211;28;20049;-68
2023/10/08 07:43:43;;;;;;;0.00;0.00;;;14.90;87.80;;;;;;5027249;28;20063;-68
2023/10/08 07:46:10;;;;;;;0.00;0.00;;;14.80;87.60;;;;;;5028173;28;20418;-68
2023/10/08 07:48:42;;;;;;;0.00;0.00;;;14.90;87.50;;;;;;5028870;28;20033;-68
2023/10/08 07:51:07;;;;;;;;;;;14.90;87.60;;;;;;5025378;28;20049;-68
2023/10/08 07:53:40;;;;;;;0.00;0.00;;;14.90;87.70;;;;;;5027030;28;19925;-67
2023/10/08 07:56:06;;;;;;;0.00;0.00;;;14.90;87.80;;;;;;5027394;28;20045;-68
2023/10/08 07:58:38;;;;;;;0.00;0.00;;;15.00;87.80;;;;;;5027950;28;20037;-68
2023/10/08 08:01:08;;;;;;;0.00;0.00;;;15.00;87.60;;;;;;5026744;28;20084;-68
2023/10/08 08:03:37;;;;;;;0.35;0.35;;;15.00;87.50;;;;;;5028607;28;20096;-67
2023/10/08 08:06:07;;;;;;;0.00;0.00;;;15.10;87.70;;;;;;5026748;28;20680;-67
2023/10/08 08:08:37;;;;;;;0.00;0.00;;;15.10;87.60;;;;;;5028198;28;20928;-67
2023/10/08 08:11:12;;;;;;;0.10;0.10;;;15.10;87.40;;;;;;5026902;28;20072;-67
2023/10/08 08:13:44;;;;;;;0.00;0.00;;;15.00;86.30;;;;;;5026307;28;20128;-67
2023/10/08 08:16:16;;;;;;;0.00;0.00;;;14.90;86.00;;;;;;5026996;28;20030;-67
2023/10/08 08:18:46;;;;;;;0.00;0.00;;;14.90;85.90;;;;;;5027631;28;20128;-67
2023/10/08 08:21:16;;;;;;;0.00;0.00;;;14.90;85.80;;;;;;5026042;28;20099;-67
2023/10/08 08:23:47;;;;;;;0.00;0.00;;;14.90;86.00;;;;;;5023115;28;20058;-68
2023/10/08 08:26:29;;;;;;;0.00;0.00;;;15.00;86.00;;;;;;5026902;28;20045;-67
2023/10/08 08:28:57;;;;;;;0.00;0.00;;;15.00;85.80;;;;;;5027563;28;20167;-70
2023/10/08 08:31:23;;;;;;;0.00;0.00;;;15.10;85.80;;;;;;5027393;28;20088;-70
2023/10/08 08:33:52;;;;;;;0.13;0.13;;;15.60;89.40;;;;;;5023785;28;20383;-66
2023/10/08 08:36:21;;;;;;;0.00;0.00;;;15.80;88.20;;;;;;5027370;28;20076;-66
2023/10/08 08:38:48;;;;;;;0.00;0.00;;;15.70;87.10;;;;;;5027865;28;20045;-66
2023/10/08 08:41:17;;;;;;;0.00;0.00;;;15.70;86.60;;;;;;5027145;28;20102;-67
2023/10/08 08:43:46;;;;;;;0.00;0.00;;;15.60;86.20;;;;;;5026946;28;20099;-67
2023/10/08 08:46:12;;;;;;;0.00;0.00;;;15.60;85.60;;;;;;5026906;28;20045;-67
2023/10/08 08:48:44;;;;;;;0.00;0.00;;;15.70;85.40;;;;;;5027694;28;20406;-66
2023/10/08 08:51:09;;;;;;;;;;;15.70;85.50;;;;;;5027289;28;20053;-66
2023/10/08 08:53:39;;;;;;;0.00;0.00;;;15.60;85.40;;;;;;5027631;28;19928;-64
2023/10/08 08:56:09;;;;;;;0.00;0.00;;;15.70;85.10;;;;;;5026435;28;20050;-65
2023/10/08 08:58:37;;;;;;;0.00;0.00;;;15.70;85.10;;;;;;5026140;28;20076;-67
2023/10/08 09:01:06;;;;;;;0.00;0.00;;;15.70;85.60;;;;;;5026515;28;20061;-65
2023/10/08 09:03:31;;;;;;;0.00;0.00;;;15.80;85.20;;;;;;5023960;28;20144;-65
2023/10/08 09:06:00;;;;;;;0.00;0.00;;;15.90;86.20;;;;;;5025464;28;20120;-65
2023/10/08 09:08:33;;;;;;;0.00;0.00;;;16.00;85.30;;;;;;5026099;28;20057;-66
2023/10/08 09:11:04;;;;;;;0.00;0.00;;;16.00;84.60;;;;;;5023785;28;20132;-66
2023/10/08 09:13:33;;;;;;;0.00;0.00;;;16.00;84.80;;;;;;5026907;28;20067;-66
2023/10/08 09:16:11;;;;;;;0.00;0.00;;;16.10;84.90;;;;;;5024244;28;20386;-69
2023/10/08 09:18:37;;;;;;;0.00;0.00;;;16.10;84.80;;;;;;5021812;28;20078;-65
2023/10/08 09:21:15;;;;;;;0.00;0.00;;;16.10;84.60;;;;;;5023295;28;20099;-65
2023/10/08 09:23:47;;;;;;;0.00;0.00;;;16.10;84.60;;;;;;5024013;28;20108;-66
2023/10/08 09:26:14;;;;;;;0.00;0.00;;;16.10;84.40;;;;;;5022261;28;20054;-66
2023/10/08 09:28:46;;;;;;;0.00;0.00;;;16.20;84.40;;;;;;5023413;28;20076;-65
2023/10/08 09:31:12;;;;;;;0.00;0.00;;;16.20;84.00;;;;;;5005972;28;20072;-65
2023/10/08 09:33:39;;;;;;;0.00;0.00;;;16.20;83.40;;;;;;5022855;28;20058;-65
2023/10/08 09:36:05;;;;;;;0.00;0.00;;;16.30;83.60;;;;;;5022268;28;20050;-65
2023/10/08 09:38:33;;;;;;;0.00;0.00;;;16.40;83.00;;;;;;5022607;28;20053;-65
2023/10/08 09:41:02;;;;;;;0.00;0.00;;;16.40;81.60;;;;;;5022464;28;20045;-66
2023/10/08 09:43:29;;;;;;;0.00;0.00;;;16.40;81.60;;;;;;5023351;28;20050;-66
2023/10/08 09:46:15;;;;;;;0.63;0.13;;;16.50;82.60;;;;;;5022023;28;20045;-65
2023/10/08 09:48:44;;;;;;;0.30;0.30;;;16.50;81.00;;;;;;5007588;28;20045;-67
2023/10/08 09:51:12;;;;;;;0.00;0.00;;;16.70;83.30;;;;;;5026620;28;20095;-67
2023/10/08 09:54:04;;;;;;;0.00;0.00;;;16.70;81.40;;;;;;5026820;28;20076;-69
2023/10/08 09:56:31;;;;;;;0.00;0.00;;;16.70;80.80;;;;;;5009991;28;20045;-68
2023/10/08 09:58:59;;;;;;;0.00;0.00;;;16.60;81.30;;;;;;5031274;28;20044;-68
2023/10/08 10:01:26;;;;;;;0.00;0.00;;;16.60;80.80;;;;;;5030201;28;20516;-67
2023/10/08 10:03:52;;;;;;;0.00;0.00;;;16.60;79.70;;;;;;5030866;28;20049;-68
2023/10/08 10:06:18;;;;;;;0.00;0.00;;;16.50;79.70;;;;;;5030632;28;20038;-68
2023/10/08 10:08:45;;;;;;;0.00;0.00;;;16.50;79.20;;;;;;5030544;28;20509;-68
2023/10/08 10:11:11;;;;;;;0.00;0.00;;;16.50;79.60;;;;;;5025387;28;20045;-67
2023/10/08 10:13:47;;;;;;;0.00;0.00;;;16.60;80.10;;;;;;5029869;28;20041;-67
2023/10/08 10:16:17;;;;;;;0.00;0.00;;;16.60;80.50;;;;;;5028658;28;20049;-69
2023/10/08 10:18:46;;;;;;;0.00;0.00;;;16.60;77.50;;;;;;5030067;28;20464;-68
2023/10/08 10:21:12;;;;;;;0.00;0.00;;;16.50;77.60;;;;;;5030003;28;20151;-69
2023/10/08 10:23:45;;;;;;;0.00;0.00;;;16.60;78.70;;;;;;5030579;28;20187;-69
2023/10/08 10:29:26;;;;;;;0.00;0.00;;;16.60;78.20;;;;;;5028128;28;20490;-69
2023/10/08 10:31:53;;;;;;;0.00;0.00;;;16.70;79.10;;;;;;5026487;28;20045;-70
2023/10/08 10:34:27;;;;;;;0.00;0.00;;;16.70;79.00;;;;;;5024080;28;20433;-70
2023/10/08 10:37:08;;;;;;;0.00;0.00;;;16.80;77.40;;;;;;5026756;28;20398;-70
2023/10/08 10:39:41;;;;;;;0.00;0.00;;;16.80;76.90;;;;;;5027034;28;20041;-70
2023/10/08 10:42:20;;;;;;;0.00;0.00;;;16.80;78.60;;;;;;5010581;28;20071;-70
2023/10/08 10:44:49;;;;;;;0.00;0.00;;;16.80;77.20;;;;;;5025844;28;20656;-69
2023/10/08 10:47:42;;;;;;;0.00;0.00;;;16.90;77.70;;;;;;5025927;28;20049;-69
2023/10/08 10:50:31;;;;;;;0.00;0.00;;;16.80;76.00;;;;;;5010807;28;20052;-69
2023/10/08 10:52:57;;;;;;;0.00;0.00;;;16.90;76.10;;;;;;5025590;28;20198;-65
2023/10/08 10:55:31;;;;;;;0.00;0.00;;;17.10;78.90;;;;;;5025856;28;20726;-68
2023/10/08 10:58:15;;;;;;;0.10;0.10;;;17.30;79.70;;;;;;5026355;28;20045;-68
2023/10/08 11:03:16;;;;;;;0.00;0.00;;;17.80;77.70;;;;;;5023832;28;20142;-68
2023/10/08 11:05:47;;;;;;;;;;;18.00;76.90;;;;;;5028907;28;20049;-69
2023/10/08 11:08:15;;;;;;;0.00;0.00;;;18.10;75.80;;;;;;5027965;28;20051;-69
2023/10/08 11:10:50;;;;;;;0.00;0.00;;;18.30;74.80;;;;;;5026390;28;20042;-70
2023/10/08 11:13:20;;;;;;;0.00;0.00;;;18.40;74.10;;;;;;5025043;28;20571;-69
2023/10/08 11:15:49;;;;;;;0.00;0.00;;;18.30;72.40;;;;;;5027555;28;20041;-70
2023/10/08 11:18:27;;;;;;;0.00;0.00;;;18.10;71.10;;;;;;5028065;28;20044;-70
2023/10/08 11:21:13;;;;;;;0.00;0.00;;;18.00;71.20;;;;;;5026126;28;20060;-70
2023/10/08 11:23:43;;;;;;;0.00;0.00;;;18.00;73.00;;;;;;5028351;28;20069;-67
2023/10/08 11:26:09;;;;;;;0.00;0.00;;;17.90;71.60;;;;;;5026088;28;20060;-65
2023/10/08 11:28:43;;;;;;;0.00;0.00;;;17.90;73.10;;;;;;5025957;28;20045;-73
2023/10/08 11:31:19;;;;;;;0.00;0.00;;;18.00;74.20;;;;;;5026012;28;20495;-72
2023/10/08 11:33:53;;;;;;;0.00;0.00;;;18.10;72.10;;;;;;5026820;28;20041;-72
2023/10/08 11:36:29;;;;;;;0.00;0.00;;;18.10;72.10;;;;;;5028149;28;20042;-72
2023/10/08 11:39:06;;;;;;;0.00;0.00;;;18.10;72.70;;;;;;5027814;28;20046;-72
2023/10/08 11:41:42;;;;;;;0.00;0.00;;;18.10;72.60;;;;;;5027823;28;20146;-72
2023/10/08 11:44:13;;;;;;;0.00;0.00;;;17.90;67.90;;;;;;5028557;28;20469;-71
2023/10/08 11:46:38;;;;;;;0.10;0.10;;;18.00;69.40;;;;;;5028978;28;20124;-72
2023/10/08 11:49:17;;;;;;;0.00;0.00;;;18.10;71.20;;;;;;5028622;28;20140;-71
2023/10/08 11:51:46;;;;;;;0.00;0.00;;;18.10;69.40;;;;;;5010868;28;20045;-71
2023/10/08 11:54:12;;;;;;;0.63;0.50;;;18.10;69.30;;;;;;5027911;28;20049;-72
2023/10/08 11:56:38;;;;;;;0.08;0.08;;;18.10;72.80;;;;;;5023479;28;20033;-71
2023/10/08 11:59:08;;;;;;;0.08;0.08;;;18.10;70.70;;;;;;5028425;28;20487;-72
2023/10/08 12:01:37;;;;;;;0.00;0.00;;;18.10;68.20;;;;;;5025711;28;20045;-72
2023/10/08 12:04:03;;;;;;;0.00;0.00;;;18.10;69.90;;;;;;5024005;28;20060;-72
2023/10/08 12:06:33;;;;;;;0.38;0.32;;;18.10;71.80;;;;;;5025643;28;20092;-72
2023/10/08 12:08:58;;;;;;;0.00;0.00;;;18.10;69.60;;;;;;5023131;28;20080;-72
2023/10/08 12:11:33;;;;;;;0.00;0.00;;;18.10;71.30;;;;;;5025580;28;20049;-72
2023/10/08 12:13:59;;;;;;;1.17;0.20;;;18.10;71.20;;;;;;5024720;28;20144;-72
2023/10/08 12:16:29;;;;;;;0.82;0.80;;;18.00;68.70;;;;;;5025231;28;20042;-72
2023/10/08 12:18:58;;;;;;;0.57;0.57;;;17.90;68.30;;;;;;5024586;28;20088;-72
2023/10/08 12:21:30;;;;;;;0.00;0.00;;;18.00;69.60;;;;;;5022083;28;20045;-72
2023/10/08 12:24:01;;;;;;;0.20;0.20;;;18.00;69.20;;;;;;5024540;28;20049;-71
2023/10/08 12:26:27;;;;;;;0.00;0.00;;;18.00;69.30;;;;;;5024362;28;20053;-72
2023/10/08 12:28:53;;;;;;;0.00;0.00;;;18.10;69.30;;;;;;5022888;28;20611;-71
2023/10/08 12:31:23;;;;;;;0.00;0.00;;;18.20;71.00;;;;;;5022412;28;20494;-71
2023/10/08 12:33:53;;;;;;;0.00;0.00;;;18.20;69.60;;;;;;5024670;28;20057;-71
2023/10/08 12:36:22;;;;;;;0.00;0.00;;;18.20;66.90;;;;;;5025649;28;20095;-72
2023/10/08 12:38:49;;;;;;;0.00;0.00;;;18.30;67.70;;;;;;5024317;28;20403;-72
2023/10/08 12:41:16;;;;;;;0.00;0.00;;;18.40;69.60;;;;;;5023540;28;20494;-72
2023/10/08 12:43:52;;;;;;;0.00;0.00;;;18.50;70.20;;;;;;5025143;28;20068;-71
2023/10/08 12:46:18;;;;;;;0.00;0.00;;;18.50;68.20;;;;;;5025797;28;20045;-72
2023/10/08 12:48:52;;;;;;;0.00;0.00;;;18.50;68.60;;;;;;5020040;28;20049;-72
2023/10/08 12:51:20;;;;;;;0.00;0.00;;;18.50;67.60;;;;;;5024715;28;20406;-72
2023/10/08 12:53:58;;;;;;;0.00;0.00;;;18.50;68.10;;;;;;5023291;28;20053;-72
2023/10/08 12:56:31;;;;;;;0.00;0.00;;;18.60;69.40;;;;;;5024714;28;20048;-72
2023/10/08 12:58:58;;;;;;;0.00;0.00;;;18.60;68.00;;;;;;5023650;28;20057;-72
2023/10/08 13:01:28;;;;;;;1.88;1.17;;;18.60;68.00;;;;;;5020452;28;20132;-72
2023/10/08 13:03:59;;;;;;;0.00;0.00;;;18.60;66.70;;;;;;5005189;28;20068;-72
2023/10/08 13:06:29;;;;;;;0.00;0.00;;;18.60;68.10;;;;;;5024284;28;20056;-72
2023/10/08 13:08:55;;;;;;;0.00;0.00;;;18.60;68.40;;;;;;5023725;28;20153;-72
2023/10/08 13:11:25;;;;;;;0.00;0.00;;;18.50;67.70;;;;;;5021129;28;20445;-73
2023/10/08 13:13:56;;;;;;;0.00;0.00;;;18.60;70.00;;;;;;5023375;28;20057;-70
2023/10/08 13:16:23;;;;;;;0.00;0.00;;;18.60;72.90;;;;;;5022738;28;20588;-72
2023/10/08 13:18:50;;;;;;;0.00;0.00;;;18.60;72.10;;;;;;5023581;28;20474;-73
2023/10/08 13:21:16;;;;;;;0.00;0.00;;;18.50;67.10;;;;;;5023505;28;20045;-73
2023/10/08 13:23:42;;;;;;;0.00;0.00;;;18.40;68.30;;;;;;5024033;28;20046;-73
2023/10/08 13:26:08;;;;;;;0.20;0.20;;;18.40;69.00;;;;;;5023655;28;20049;-73
2023/10/08 13:28:36;;;;;;;0.00;0.00;;;18.40;70.30;;;;;;5020627;28;20517;-71
2023/10/08 13:31:11;;;;;;;0.00;0.00;;;18.40;70.90;;;;;;5021994;28;20095;-72
2023/10/08 13:33:42;;;;;;;0.00;0.00;;;18.40;71.70;;;;;;5021382;28;20049;-72
2023/10/08 13:36:09;;;;;;;;;;;18.30;71.60;;;;;;5024599;28;20418;-72
2023/10/08 13:38:36;;;;;;;0.00;0.00;;;18.30;71.60;;;;;;5023284;28;19931;-72
2023/10/08 13:41:06;;;;;;;0.00;0.00;;;18.30;71.40;;;;;;5023523;28;20041;-73
2023/10/08 13:43:35;;;;;;;0.00;0.00;;;18.30;71.30;;;;;;5018896;28;20430;-73
2023/10/08 13:46:15;;;;;;;0.00;0.00;;;18.30;70.10;;;;;;5023427;28;20053;-73
2023/10/08 13:48:47;;;;;;;0.00;0.00;;;18.20;71.00;;;;;;5022352;28;20133;-73
2023/10/08 13:51:14;;;;;;;0.00;0.00;;;18.20;71.60;;;;;;5021332;28;20058;-73
2023/10/08 13:53:52;;;;;;;0.00;0.00;;;18.20;72.80;;;;;;5022280;28;20033;-72
2023/10/08 13:56:24;;;;;;;0.00;0.00;;;18.10;70.60;;;;;;5023544;28;20048;-73
2023/10/08 13:58:55;;;;;;;0.10;0.10;;;18.10;72.10;;;;;;5023174;28;20042;-76
2023/10/08 14:01:21;;;;;;;0.10;0.10;;;18.10;72.20;;;;;;5022130;28;20490;-73
2023/10/08 14:03:48;;;;;;;0.00;0.00;;;18.00;72.60;;;;;;5022008;28;20045;-73
2023/10/08 14:06:17;;;;;;;0.00;0.00;;;18.00;72.20;;;;;;5022835;28;20085;-73
2023/10/08 14:08:51;;;;;;;0.00;0.00;;;18.00;73.40;;;;;;5024060;28;20050;-73
2023/10/08 14:11:19;;;;;;;0.00;0.00;;;18.00;73.20;;;;;;5022416;28;20051;-73
2023/10/08 14:13:47;;;;;;;0.00;0.00;;;17.90;73.10;;;;;;5022721;28;20042;-72
2023/10/08 14:16:14;;;;;;;0.00;0.00;;;17.90;73.60;;;;;;5023210;28;20398;-73
2023/10/08 14:18:42;;;;;;;0.00;0.00;;;17.90;73.80;;;;;;5023783;28;20095;-73